LKCS weather

České Budějovice Airport
České Budějovice, South Bohemian Region, Czechia

Public forecast

Using degrees Celsius for public forecast. Weather courtesy of forecast.io.

Closest aviation weather report (METAR) to České Budějovice Airport

Closest report is Linz Hörsching Airport, 43.9 nm (81.2 km) SSW. Retrieved 2019/10/15 10:20 UTC (20 minutes ago):

LOWL 151020Z 10004KT 070V150 4000 BR OVC003 11/11 Q1010 BECMG 5000 BR OVC005

Closest aviation forecast (TAF) to České Budějovice Airport

Closest forecast is Linz Hörsching Airport, 43.9 nm (81.2 km) SSW. Retrieved 2019/10/15 06:21 UTC (4 hours ago):

TAF TAF LOWL 150515Z 1506/1606 10004KT 3000 BR OVC004 TX15/1515Z TN10/1606Z TEMPO 1506/1510 0700 FG VV002 BECMG 1510/1512 7000 BKN008 BECMG 1512/1514 SCT010 BECMG 1522/1601 25008KT 9999 -RA SCT020 BKN030 TEMPO 1600/1606 29015G25KT 6000 RA